Time;durP1;ratioP1;P1;durP2;ratioP2;P2;SDS_P1;SDS_P2;PMS_P1;PMS_P2;Temp;Humidity;BMP_temperature;BMP_pressure;BME280_temperature;BME280_humidity;BME280_pressure;Samples;Min_cycle;Max_cycle;Signal;HPM_P1;HPM_P2
2021/03/01 00:02:03;;;;;;;9.10;5.90;;;1.70;99.90;;;;;;5053091;28;20477;-66
2021/03/01 00:04:30;;;;;;;12.67;7.10;;;1.70;99.90;;;;;;5052743;28;20431;-67
2021/03/01 00:06:57;;;;;;;9.50;6.37;;;1.80;99.90;;;;;;5053197;28;20430;-67
2021/03/01 00:09:23;;;;;;;12.27;6.30;;;1.80;99.90;;;;;;5052776;28;20450;-66
2021/03/01 00:11:50;;;;;;;10.50;6.53;;;1.80;99.90;;;;;;5052902;28;20427;-67
2021/03/01 00:14:17;;;;;;;9.97;6.00;;;1.80;99.90;;;;;;5052789;28;20465;-66
2021/03/01 00:16:47;;;;;;;8.90;5.93;;;1.70;99.90;;;;;;5053016;28;20431;-66
2021/03/01 00:19:14;;;;;;;13.43;7.00;;;1.70;99.90;;;;;;5051784;28;20470;-67
2021/03/01 00:21:40;;;;;;;8.70;5.97;;;1.70;99.90;;;;;;5052102;28;20462;-67
2021/03/01 00:24:08;;;;;;;10.23;6.60;;;1.70;99.90;;;;;;5051950;28;20450;-67
2021/03/01 00:26:34;;;;;;;9.53;6.10;;;1.70;99.90;;;;;;5052897;28;20446;-66
2021/03/01 00:29:01;;;;;;;10.80;6.40;;;1.70;99.90;;;;;;5052568;28;20451;-67
2021/03/01 00:31:28;;;;;;;9.67;6.87;;;1.60;99.90;;;;;;5052622;28;20449;-66
2021/03/01 00:33:55;;;;;;;8.70;5.67;;;1.60;99.90;;;;;;5052321;28;20828;-65
2021/03/01 00:36:22;;;;;;;11.53;6.13;;;1.70;99.90;;;;;;5051920;28;20445;-67
2021/03/01 00:38:49;;;;;;;9.10;5.77;;;1.70;99.90;;;;;;5052440;28;20451;-67
2021/03/01 00:41:15;;;;;;;7.83;5.67;;;1.70;99.90;;;;;;5052456;28;20455;-67
2021/03/01 00:43:42;;;;;;;15.90;6.40;;;1.70;99.90;;;;;;5052166;28;20478;-67
2021/03/01 00:46:09;;;;;;;8.77;5.80;;;1.80;99.90;;;;;;5052497;28;20940;-66
2021/03/01 00:48:35;;;;;;;9.67;6.20;;;1.80;99.90;;;;;;5051969;28;20443;-66
2021/03/01 00:51:03;;;;;;;13.70;7.13;;;1.80;99.90;;;;;;5052276;28;20947;-66
2021/03/01 00:53:30;;;;;;;13.27;6.80;;;1.80;99.90;;;;;;5052136;28;20923;-66
2021/03/01 00:55:57;;;;;;;9.93;6.20;;;1.80;99.90;;;;;;5052077;28;20470;-67
2021/03/01 00:58:24;;;;;;;8.73;5.83;;;1.80;99.90;;;;;;5052108;28;20444;-66
2021/03/01 01:00:52;;;;;;;10.30;6.87;;;1.80;99.90;;;;;;5051699;28;20446;-66
2021/03/01 01:03:20;;;;;;;10.77;6.73;;;1.70;99.90;;;;;;5051574;28;20525;-66
2021/03/01 01:05:46;;;;;;;15.50;6.63;;;1.70;99.90;;;;;;5051710;28;20450;-67
2021/03/01 01:08:14;;;;;;;13.87;6.73;;;1.70;99.90;;;;;;5051886;28;20458;-66
2021/03/01 01:10:41;;;;;;;12.70;7.10;;;1.60;99.90;;;;;;5051059;28;20427;-65
2021/03/01 01:13:08;;;;;;;13.93;8.00;;;1.60;99.90;;;;;;5051798;28;20453;-67
2021/03/01 01:15:35;;;;;;;15.70;7.30;;;1.60;99.90;;;;;;5051766;28;20434;-66
2021/03/01 01:18:03;;;;;;;10.23;5.50;;;1.60;99.90;;;;;;5051320;28;20482;-66
2021/03/01 01:20:29;;;;;;;9.80;6.10;;;1.50;99.90;;;;;;5051658;28;20504;-67
2021/03/01 01:22:56;;;;;;;9.37;6.50;;;1.50;99.90;;;;;;5051395;28;20487;-66
2021/03/01 01:25:24;;;;;;;9.33;6.30;;;1.30;99.90;;;;;;5050882;28;20573;-66
2021/03/01 01:27:50;;;;;;;10.63;6.63;;;1.40;99.90;;;;;;5051419;28;20466;-67
2021/03/01 01:30:21;;;;;;;9.93;6.90;;;1.40;99.90;;;;;;5051417;28;20442;-66
2021/03/01 01:32:48;;;;;;;16.10;7.93;;;1.40;99.90;;;;;;5050752;28;20426;-66
2021/03/01 01:35:16;;;;;;;12.50;6.17;;;1.30;99.90;;;;;;5051428;28;20437;-66
2021/03/01 01:37:43;;;;;;;12.40;6.50;;;1.30;99.90;;;;;;5050684;28;20489;-66
2021/03/01 01:40:12;;;;;;;10.50;6.97;;;1.30;99.90;;;;;;5050735;28;20989;-66
2021/03/01 01:42:40;;;;;;;10.57;6.43;;;1.30;99.90;;;;;;5050762;28;20490;-66
2021/03/01 01:45:09;;;;;;;13.03;6.70;;;1.20;99.90;;;;;;5051283;28;20882;-66
2021/03/01 01:47:36;;;;;;;8.93;5.73;;;1.20;99.90;;;;;;5051005;28;20450;-66
2021/03/01 01:50:04;;;;;;;11.57;7.20;;;1.20;99.90;;;;;;5051071;28;21134;-67
2021/03/01 01:52:31;;;;;;;12.83;6.30;;;1.20;99.90;;;;;;5051236;28;20796;-66
2021/03/01 01:54:58;;;;;;;8.90;6.40;;;1.20;99.90;;;;;;5051153;28;20423;-66
2021/03/01 01:57:25;;;;;;;11.60;7.10;;;1.10;99.90;;;;;;5051146;28;20501;-66
2021/03/01 01:59:52;;;;;;;9.60;6.87;;;1.10;99.90;;;;;;5050932;28;20449;-66
2021/03/01 02:02:19;;;;;;;9.67;6.03;;;1.10;99.90;;;;;;5051024;28;20979;-66
2021/03/01 02:04:49;;;;;;;12.63;7.53;;;1.10;99.90;;;;;;5050161;28;20450;-66
2021/03/01 02:07:23;;;;;;;21.43;6.63;;;1.10;99.90;;;;;;5050827;28;20427;-66
2021/03/01 02:10:02;;;;;;;10.57;6.40;;;1.10;99.90;;;;;;5050886;28;20451;-66
2021/03/01 02:12:45;;;;;;;11.50;6.73;;;1.00;99.90;;;;;;5050866;28;20500;-66
2021/03/01 02:15:19;;;;;;;13.07;7.37;;;1.00;99.90;;;;;;5050977;28;20438;-66
2021/03/01 02:17:45;;;;;;;10.50;6.97;;;1.00;99.90;;;;;;5050599;28;20473;-66
2021/03/01 02:20:12;;;;;;;11.53;5.97;;;1.00;99.90;;;;;;5050777;28;20834;-66
2021/03/01 02:22:40;;;;;;;8.77;6.60;;;1.00;99.90;;;;;;5050360;28;20523;-67
2021/03/01 02:25:09;;;;;;;9.70;6.37;;;1.00;99.90;;;;;;5050267;28;20435;-67
2021/03/01 02:27:41;;;;;;;11.13;6.60;;;1.00;99.90;;;;;;5050483;28;20462;-66
2021/03/01 02:30:16;;;;;;;11.93;6.33;;;1.00;99.90;;;;;;5050371;28;20442;-66
2021/03/01 02:32:44;;;;;;;13.23;6.60;;;1.00;99.90;;;;;;5050177;28;20440;-66
2021/03/01 02:35:14;;;;;;;10.47;7.20;;;1.00;99.90;;;;;;5050512;28;20482;-66
2021/03/01 02:37:42;;;;;;;12.20;6.77;;;1.00;99.90;;;;;;5050563;28;20450;-66
2021/03/01 02:40:11;;;;;;;9.13;6.40;;;1.00;99.90;;;;;;5050350;28;20435;-66
2021/03/01 02:42:39;;;;;;;9.20;6.40;;;0.90;99.90;;;;;;5049991;28;20478;-67
2021/03/01 02:45:07;;;;;;;11.50;7.40;;;0.90;99.90;;;;;;5050066;28;20927;-67
2021/03/01 02:47:34;;;;;;;10.93;6.93;;;0.80;99.90;;;;;;5050236;28;20447;-66
2021/03/01 02:50:01;;;;;;;13.40;7.57;;;0.80;99.90;;;;;;5050266;28;20431;-66
2021/03/01 02:52:29;;;;;;;11.10;7.03;;;0.80;99.90;;;;;;5050819;28;20483;-66
2021/03/01 02:55:01;;;;;;;10.73;6.50;;;0.80;99.90;;;;;;5053985;28;20447;-67
2021/03/01 02:57:29;;;;;;;12.63;7.20;;;0.80;99.90;;;;;;5054460;28;20971;-66
2021/03/01 02:59:57;;;;;;;14.13;7.17;;;0.90;99.90;;;;;;5054445;28;20974;-67
2021/03/01 03:02:25;;;;;;;9.90;6.17;;;0.90;99.90;;;;;;5054153;28;20817;-66
2021/03/01 03:04:53;;;;;;;11.93;7.30;;;0.90;99.90;;;;;;5054060;28;20456;-66
2021/03/01 03:07:20;;;;;;;11.23;7.83;;;0.90;99.90;;;;;;5053591;28;21042;-66
2021/03/01 03:09:48;;;;;;;8.73;6.43;;;0.90;99.90;;;;;;5054128;28;20453;-65
2021/03/01 03:12:16;;;;;;;10.60;7.00;;;0.80;99.90;;;;;;5053960;28;20916;-66
2021/03/01 03:14:44;;;;;;;12.90;5.97;;;0.80;99.90;;;;;;5054111;28;20807;-67
2021/03/01 03:17:12;;;;;;;11.30;7.17;;;0.80;99.90;;;;;;5054173;28;20499;-66
2021/03/01 03:19:42;;;;;;;11.83;7.00;;;0.80;99.90;;;;;;5053429;28;20434;-66
2021/03/01 03:22:08;;;;;;;15.53;7.63;;;0.70;99.90;;;;;;5053799;28;20438;-66
2021/03/01 03:24:35;;;;;;;11.27;7.50;;;0.70;99.90;;;;;;5053931;28;20422;-66
2021/03/01 03:27:02;;;;;;;10.70;7.50;;;0.70;99.90;;;;;;5053871;28;20442;-66
2021/03/01 03:29:30;;;;;;;12.80;7.77;;;0.60;99.90;;;;;;5053177;28;20461;-65
2021/03/01 03:31:57;;;;;;;13.37;8.47;;;0.60;99.90;;;;;;5053754;28;20426;-66
2021/03/01 03:34:24;;;;;;;12.73;7.47;;;0.60;99.90;;;;;;5053712;28;21054;-66
2021/03/01 03:37:00;;;;;;;9.63;7.00;;;0.60;99.90;;;;;;5053862;28;20458;-66
2021/03/01 03:39:27;;;;;;;13.30;7.23;;;0.70;99.90;;;;;;5052924;28;20479;-66
2021/03/01 03:41:56;;;;;;;12.43;7.23;;;0.70;99.90;;;;;;5053277;28;20442;-67
2021/03/01 03:44:23;;;;;;;14.17;7.30;;;0.70;99.90;;;;;;5053474;28;20473;-66
2021/03/01 03:46:52;;;;;;;10.67;8.27;;;0.60;99.90;;;;;;5053539;28;20435;-66
2021/03/01 03:49:20;;;;;;;11.73;6.13;;;0.60;99.90;;;;;;5052339;28;20458;-66
2021/03/01 03:51:48;;;;;;;12.00;6.57;;;0.70;99.90;;;;;;5053329;28;20915;-67
2021/03/01 03:54:17;;;;;;;11.00;7.70;;;0.70;99.90;;;;;;5053339;28;20435;-66
2021/03/01 03:56:50;;;;;;;11.40;7.80;;;0.70;99.90;;;;;;5053346;28;20439;-66
2021/03/01 03:59:19;;;;;;;12.83;6.97;;;0.70;99.90;;;;;;5053074;28;20454;-66
2021/03/01 04:01:52;;;;;;;11.07;7.30;;;0.60;99.90;;;;;;5053066;28;20465;-66
2021/03/01 04:04:20;;;;;;;12.23;7.17;;;0.60;99.90;;;;;;5051761;28;20478;-66
2021/03/01 04:06:48;;;;;;;14.70;7.30;;;0.60;99.90;;;;;;5053085;28;20430;-65
2021/03/01 04:09:18;;;;;;;10.07;7.50;;;0.60;99.90;;;;;;5052966;28;20566;-66
2021/03/01 04:11:47;;;;;;;9.97;6.50;;;0.50;99.90;;;;;;5053036;28;20434;-66
2021/03/01 04:14:18;;;;;;;11.73;7.57;;;0.60;99.90;;;;;;5053024;28;20838;-66
2021/03/01 04:16:47;;;;;;;11.17;7.90;;;0.60;99.90;;;;;;5052926;28;20437;-66
2021/03/01 04:19:15;;;;;;;13.10;7.20;;;0.50;99.90;;;;;;5051929;28;20968;-67
2021/03/01 04:21:44;;;;;;;14.70;8.43;;;0.50;99.90;;;;;;5052519;28;20453;-66
2021/03/01 04:24:13;;;;;;;21.77;9.33;;;0.50;99.90;;;;;;5052711;28;20521;-66
2021/03/01 04:26:40;;;;;;;15.03;8.67;;;0.50;99.90;;;;;;5052928;28;20461;-67
2021/03/01 04:29:07;;;;;;;10.33;7.10;;;0.50;99.90;;;;;;5052444;28;20898;-67
2021/03/01 04:31:36;;;;;;;10.40;6.90;;;0.40;99.90;;;;;;5052940;28;20427;-66
2021/03/01 04:34:04;;;;;;;11.37;7.53;;;0.40;99.90;;;;;;5052458;28;20818;-66
2021/03/01 04:36:33;;;;;;;14.07;8.00;;;0.40;99.90;;;;;;5052163;28;20453;-66
2021/03/01 04:38:59;;;;;;;15.67;8.13;;;0.40;99.90;;;;;;5052211;28;20477;-67
2021/03/01 04:41:27;;;;;;;12.57;8.10;;;0.30;99.90;;;;;;5052211;28;20497;-66
2021/03/01 04:43:56;;;;;;;11.80;9.07;;;0.30;99.90;;;;;;5052349;28;20479;-66
2021/03/01 04:46:23;;;;;;;13.83;8.13;;;0.30;99.90;;;;;;5052302;28;20431;-66
2021/03/01 04:48:52;;;;;;;13.43;8.30;;;0.30;99.90;;;;;;5052158;28;20458;-67
2021/03/01 04:51:19;;;;;;;12.97;8.10;;;0.20;99.90;;;;;;5051714;28;20445;-67
2021/03/01 04:53:47;;;;;;;14.37;7.60;;;0.20;99.90;;;;;;5052149;28;20438;-66
2021/03/01 04:56:13;;;;;;;13.47;8.20;;;0.20;99.90;;;;;;5052197;28;20451;-67
2021/03/01 04:58:42;;;;;;;16.33;7.77;;;0.20;99.90;;;;;;5052112;28;20465;-66
2021/03/01 05:01:10;;;;;;;12.50;8.30;;;0.10;99.90;;;;;;5052098;28;20427;-66
2021/03/01 05:03:39;;;;;;;13.00;8.80;;;0.10;99.90;;;;;;5051755;28;20471;-67
2021/03/01 05:06:06;;;;;;;12.80;8.00;;;0.00;99.90;;;;;;5051914;28;20450;-66
2021/03/01 05:08:36;;;;;;;10.20;8.07;;;0.00;99.90;;;;;;5051943;28;20443;-67
2021/03/01 05:11:06;;;;;;;15.77;9.97;;;-0.10;99.90;;;;;;5051855;28;20431;-66
2021/03/01 05:13:33;;;;;;;16.67;9.37;;;-0.10;99.90;;;;;;5051602;28;20427;-67
2021/03/01 05:16:00;;;;;;;14.93;8.93;;;-0.10;99.90;;;;;;5051233;28;20784;-67
2021/03/01 05:18:28;;;;;;;17.17;11.60;;;-0.10;99.90;;;;;;5051667;28;20955;-66
2021/03/01 05:20:55;;;;;;;11.47;7.60;;;-0.10;99.90;;;;;;5051553;28;20500;-66
2021/03/01 05:23:22;;;;;;;12.87;9.00;;;-0.10;99.90;;;;;;5051576;28;21142;-67
2021/03/01 05:25:48;;;;;;;22.97;16.53;;;-0.10;99.90;;;;;;5051965;28;20769;-66
2021/03/01 05:28:16;;;;;;;26.57;17.80;;;-0.10;99.90;;;;;;5050861;28;20474;-66
2021/03/01 05:30:42;;;;;;;20.43;12.13;;;-0.10;99.90;;;;;;5051558;28;20430;-66
2021/03/01 05:33:09;;;;;;;18.33;11.67;;;-0.10;99.90;;;;;;5051115;28;20433;-66
2021/03/01 05:35:36;;;;;;;14.93;11.47;;;-0.10;99.90;;;;;;5051712;28;20997;-66
2021/03/01 05:38:02;;;;;;;16.10;10.00;;;-0.10;99.90;;;;;;5051786;28;20462;-67
2021/03/01 05:40:29;;;;;;;15.37;10.77;;;-0.10;99.90;;;;;;5050669;28;20450;-67
2021/03/01 05:42:58;;;;;;;21.83;11.10;;;-0.10;99.90;;;;;;5050958;28;20524;-67
2021/03/01 05:45:25;;;;;;;16.10;11.27;;;-0.10;99.90;;;;;;5050819;28;20468;-66
2021/03/01 05:47:52;;;;;;;23.47;13.37;;;-0.10;99.90;;;;;;5051299;28;21025;-67
2021/03/01 05:50:19;;;;;;;18.07;11.57;;;-0.10;99.90;;;;;;5050946;28;20476;-66
2021/03/01 05:52:49;;;;;;;15.40;10.83;;;-0.10;99.90;;;;;;5048075;28;20454;-67
2021/03/01 05:55:16;;;;;;;18.17;10.83;;;-0.10;99.90;;;;;;5065556;28;20448;-67
2021/03/01 05:57:44;;;;;;;12.50;8.40;;;-0.20;99.90;;;;;;5069340;28;20453;-66
2021/03/01 06:00:13;;;;;;;19.13;10.00;;;-0.10;99.90;;;;;;5050979;28;20438;-67
2021/03/01 06:02:41;;;;;;;24.80;14.93;;;-0.10;99.90;;;;;;5050505;28;20471;-67
2021/03/01 06:05:09;;;;;;;116.10;49.53;;;-0.10;99.90;;;;;;5049884;28;20931;-67
2021/03/01 06:07:36;;;;;;;84.93;39.23;;;-0.10;99.90;;;;;;5050498;28;20447;-67
2021/03/01 06:10:05;;;;;;;32.77;19.80;;;-0.10;99.90;;;;;;5053431;28;20457;-66
2021/03/01 06:12:32;;;;;;;41.83;23.90;;;-0.20;99.90;;;;;;5070747;28;20434;-66
2021/03/01 06:14:59;;;;;;;40.13;21.43;;;-0.10;99.90;;;;;;5050188;28;20966;-66
2021/03/01 06:17:26;;;;;;;39.57;19.07;;;-0.10;99.90;;;;;;5050663;28;20457;-67
2021/03/01 06:19:55;;;;;;;37.73;20.87;;;-0.10;99.90;;;;;;5050321;28;20442;-67
2021/03/01 06:22:23;;;;;;;35.33;19.20;;;-0.10;99.90;;;;;;5050287;28;20969;-66
2021/03/01 06:25:05;;;;;;;32.50;20.93;;;-0.10;99.90;;;;;;5050758;28;20466;-67
2021/03/01 06:27:44;;;;;;;20.20;14.97;;;-0.10;99.90;;;;;;5050160;28;20457;-67
2021/03/01 06:30:13;;;;;;;18.17;13.40;;;-0.10;99.90;;;;;;5050551;28;20431;-67
2021/03/01 06:32:40;;;;;;;15.20;10.30;;;-0.10;99.90;;;;;;5050262;28;20434;-66
2021/03/01 06:35:27;;;;;;;23.60;13.67;;;-0.10;99.90;;;;;;5049651;28;20434;-67
2021/03/01 06:38:16;;;;;;;23.27;11.40;;;0.00;99.90;;;;;;5050443;28;20466;-66
2021/03/01 06:40:43;;;;;;;16.73;9.70;;;0.00;99.90;;;;;;5050417;28;20430;-67
2021/03/01 06:43:12;;;;;;;21.87;11.60;;;0.00;99.90;;;;;;5049922;28;20478;-66
2021/03/01 06:45:39;;;;;;;18.50;10.80;;;0.10;99.90;;;;;;5050285;28;20431;-66
2021/03/01 06:48:06;;;;;;;19.30;11.90;;;0.10;99.90;;;;;;5050933;28;20447;-66
2021/03/01 06:50:35;;;;;;;16.40;10.90;;;0.20;99.90;;;;;;5049937;28;20427;-66
2021/03/01 06:53:05;;;;;;;20.10;10.70;;;0.20;99.90;;;;;;5050231;28;20435;-66
2021/03/01 06:55:32;;;;;;;23.83;14.47;;;0.20;99.90;;;;;;5050279;28;20971;-67
2021/03/01 06:58:15;;;;;;;21.33;12.00;;;0.20;99.90;;;;;;5050050;28;20470;-66
2021/03/01 07:00:43;;;;;;;21.23;10.87;;;0.30;99.90;;;;;;5050103;28;20447;-67
2021/03/01 07:03:25;;;;;;;15.30;10.83;;;0.30;99.90;;;;;;5050420;28;20482;-66
2021/03/01 07:05:55;;;;;;;15.97;10.93;;;0.40;99.90;;;;;;5047597;28;20496;-66
2021/03/01 07:08:54;;;;;;;19.20;11.30;;;0.40;99.90;;;;;;5048613;28;20477;-67
2021/03/01 07:11:26;;;;;;;17.10;10.87;;;0.50;99.90;;;;;;5048996;28;20438;-67
2021/03/01 07:13:54;;;;;;;14.60;10.00;;;0.50;99.90;;;;;;5050203;28;20443;-66
2021/03/01 07:16:20;;;;;;;16.77;11.30;;;0.60;99.90;;;;;;5050100;28;20419;-66
2021/03/01 07:18:49;;;;;;;17.00;10.67;;;0.70;99.90;;;;;;5049612;28;20443;-67
2021/03/01 07:21:18;;;;;;;18.13;10.23;;;0.70;99.90;;;;;;5050243;28;20836;-66
2021/03/01 07:23:46;;;;;;;17.50;12.47;;;0.80;99.90;;;;;;5048099;28;20604;-66
2021/03/01 07:26:15;;;;;;;40.57;20.80;;;0.80;99.90;;;;;;5048363;28;20477;-66
2021/03/01 07:28:50;;;;;;;40.23;22.17;;;0.90;99.90;;;;;;5049870;28;21004;-66
2021/03/01 07:31:18;;;;;;;25.80;16.47;;;1.00;99.90;;;;;;5050014;28;20441;-66
2021/03/01 07:33:45;;;;;;;19.93;13.20;;;1.00;99.90;;;;;;5049908;28;20430;-67
2021/03/01 07:36:12;;;;;;;17.87;12.23;;;1.10;99.90;;;;;;5050178;28;20791;-67
2021/03/01 07:38:40;;;;;;;24.50;12.63;;;1.10;99.90;;;;;;5050608;28;20476;-66
2021/03/01 07:41:08;;;;;;;17.50;12.20;;;1.20;99.90;;;;;;5053537;28;20427;-66
2021/03/01 07:43:36;;;;;;;19.37;11.40;;;1.30;99.90;;;;;;5053506;28;20820;-67
2021/03/01 07:46:04;;;;;;;17.83;12.90;;;1.40;99.90;;;;;;5053364;28;20419;-66
2021/03/01 07:48:42;;;;;;;19.70;12.13;;;1.40;99.90;;;;;;5053447;28;20443;-67
2021/03/01 07:51:10;;;;;;;15.93;11.70;;;1.50;99.90;;;;;;5053563;28;20438;-66
2021/03/01 07:53:53;;;;;;;24.80;14.70;;;1.50;99.90;;;;;;5053336;28;20461;-66
2021/03/01 07:56:50;;;;;;;23.97;14.20;;;1.50;99.90;;;;;;5053387;28;20431;-67
2021/03/01 07:59:32;;;;;;;15.13;10.07;;;1.60;99.90;;;;;;5053157;28;20503;-67
2021/03/01 08:02:21;;;;;;;19.50;12.10;;;1.70;99.90;;;;;;5053040;28;20465;-67
2021/03/01 08:04:49;;;;;;;17.33;11.93;;;1.70;99.90;;;;;;5051673;28;20475;-67
2021/03/01 08:07:18;;;;;;;21.50;14.30;;;1.70;99.90;;;;;;5052425;28;20915;-67
2021/03/01 08:10:04;;;;;;;20.20;11.60;;;1.70;99.90;;;;;;5052959;28;20434;-67
2021/03/01 08:12:57;;;;;;;16.43;10.60;;;1.70;99.90;;;;;;5052792;28;20440;-66
2021/03/01 08:15:26;;;;;;;18.07;12.17;;;1.70;99.90;;;;;;5033112;28;20434;-66
2021/03/01 08:17:53;;;;;;;22.43;12.63;;;1.70;99.90;;;;;;5033223;28;20444;-66
2021/03/01 08:20:37;;;;;;;23.37;13.30;;;1.80;99.90;;;;;;5032753;28;20429;-67
2021/03/01 08:23:18;;;;;;;18.40;13.17;;;2.00;99.90;;;;;;5036423;28;20482;-66
2021/03/01 08:25:53;;;;;;;17.50;13.67;;;2.10;99.90;;;;;;5052791;28;20459;-65
2021/03/01 08:28:59;;;;;;;22.93;14.97;;;2.20;99.90;;;;;;5052037;28;20462;-66
2021/03/01 08:31:37;;;;;;;21.57;15.53;;;2.30;99.90;;;;;;5043495;28;20446;-67
2021/03/01 08:34:37;;;;;;;20.60;12.17;;;2.40;99.90;;;;;;5051858;28;20460;-67
2021/03/01 08:37:06;;;;;;;26.63;15.20;;;2.40;99.90;;;;;;5052950;28;20524;-67
2021/03/01 08:39:57;;;;;;;18.13;11.50;;;2.50;99.90;;;;;;5052425;28;20434;-66
2021/03/01 08:42:44;;;;;;;18.30;10.47;;;2.60;99.90;;;;;;5052510;28;20443;-67
2021/03/01 08:45:12;;;;;;;27.43;15.37;;;2.70;99.90;;;;;;5032375;28;20971;-66
2021/03/01 08:47:50;;;;;;;21.90;13.60;;;2.80;99.90;;;;;;5032498;28;20444;-66
2021/03/01 08:50:22;;;;;;;17.10;11.63;;;2.80;99.90;;;;;;5030908;28;20430;-66
2021/03/01 08:52:49;;;;;;;18.53;14.00;;;2.90;99.90;;;;;;5032858;28;20453;-66
2021/03/01 08:55:19;;;;;;;14.67;11.03;;;3.10;99.90;;;;;;5052495;28;20497;-66
2021/03/01 08:58:05;;;;;;;13.80;10.50;;;3.10;99.90;;;;;;5052204;28;20434;-66
2021/03/01 09:00:34;;;;;;;20.87;12.20;;;3.30;99.90;;;;;;5051977;28;20438;-66
2021/03/01 09:03:29;;;;;;;17.07;11.53;;;3.30;99.90;;;;;;5051989;28;20486;-66
2021/03/01 09:06:03;;;;;;;18.97;10.83;;;3.50;99.90;;;;;;5016735;28;20435;-66
2021/03/01 09:08:32;;;;;;;20.40;11.87;;;3.50;99.90;;;;;;5051747;28;20454;-66
2021/03/01 09:11:00;;;;;;;24.10;11.37;;;3.70;99.90;;;;;;5051786;28;20446;-65
2021/03/01 09:13:29;;;;;;;18.07;10.87;;;3.80;99.90;;;;;;5051771;28;20434;-67
2021/03/01 09:16:03;;;;;;;17.13;11.67;;;3.90;99.90;;;;;;5051804;28;20431;-67
2021/03/01 09:18:30;;;;;;;21.83;11.93;;;4.00;99.90;;;;;;5051866;28;20950;-67
2021/03/01 09:20:58;;;;;;;15.80;11.97;;;4.00;99.90;;;;;;5051398;28;20439;-66
2021/03/01 09:23:39;;;;;;;22.03;12.63;;;4.10;99.90;;;;;;5051346;28;20510;-66
2021/03/01 09:26:07;;;;;;;18.87;12.00;;;4.30;99.90;;;;;;5051657;28;21162;-66
2021/03/01 09:28:37;;;;;;;18.00;12.87;;;4.40;99.90;;;;;;5051512;28;20462;-66
2021/03/01 09:31:09;;;;;;;13.80;11.10;;;4.60;99.90;;;;;;5051506;28;20834;-66
2021/03/01 09:33:37;;;;;;;16.23;12.10;;;4.70;99.90;;;;;;5050743;28;20467;-67
2021/03/01 09:36:04;;;;;;;17.47;11.80;;;4.80;99.90;;;;;;5051027;28;20457;-66
2021/03/01 09:38:32;;;;;;;16.07;11.27;;;4.90;99.90;;;;;;5051408;28;20508;-66
2021/03/01 09:41:03;;;;;;;16.07;12.30;;;4.90;99.90;;;;;;5051114;28;20434;-66
2021/03/01 09:43:30;;;;;;;24.53;17.23;;;5.00;99.90;;;;;;5050026;28;20486;-67
2021/03/01 09:45:59;;;;;;;18.93;12.43;;;5.10;99.90;;;;;;5050788;28;20501;-66
2021/03/01 09:48:27;;;;;;;19.63;12.10;;;5.30;99.90;;;;;;5051048;28;20452;-66
2021/03/01 09:50:54;;;;;;;20.70;11.77;;;5.40;99.90;;;;;;5051135;28;20435;-66
2021/03/01 09:53:22;;;;;;;18.43;11.83;;;5.60;99.90;;;;;;5051121;28;20805;-67
2021/03/01 09:55:53;;;;;;;19.10;12.87;;;5.70;99.90;;;;;;5051144;28;20431;-66
2021/03/01 09:58:27;;;;;;;18.10;11.80;;;5.80;99.90;;;;;;5051084;28;20466;-66
2021/03/01 10:01:05;;;;;;;22.87;16.10;;;5.90;99.90;;;;;;5050865;28;20435;-67
2021/03/01 10:03:35;;;;;;;18.13;11.53;;;5.90;99.90;;;;;;5050160;28;20478;-67
2021/03/01 10:06:02;;;;;;;16.03;11.27;;;6.00;99.90;;;;;;5050600;28;20439;-66
2021/03/01 10:08:29;;;;;;;21.80;11.90;;;6.10;99.90;;;;;;5051046;28;20466;-66
2021/03/01 10:10:56;;;;;;;18.40;11.50;;;6.20;99.90;;;;;;5051290;28;20431;-66
2021/03/01 10:13:25;;;;;;;16.67;10.87;;;6.30;99.90;;;;;;5050209;28;20470;-67
2021/03/01 10:15:53;;;;;;;30.67;10.70;;;6.30;99.90;;;;;;5050823;28;20423;-67
2021/03/01 10:18:22;;;;;;;14.33;10.20;;;6.20;99.90;;;;;;5050960;28;20466;-66
2021/03/01 10:20:55;;;;;;;16.10;10.73;;;6.30;99.90;;;;;;5050314;28;20463;-65
2021/03/01 10:23:32;;;;;;;17.87;11.83;;;6.50;99.90;;;;;;5050486;28;20472;-66
2021/03/01 10:26:18;;;;;;;16.63;10.40;;;6.60;99.90;;;;;;5050523;28;20420;-66
2021/03/01 10:28:56;;;;;;;16.27;10.70;;;6.90;99.90;;;;;;5050661;28;20441;-67
2021/03/01 10:31:25;;;;;;;15.17;9.80;;;6.90;99.90;;;;;;5050493;28;20424;-66
2021/03/01 10:33:58;;;;;;;15.53;9.97;;;7.00;99.90;;;;;;5050920;28;20450;-66
2021/03/01 10:36:27;;;;;;;17.53;11.53;;;7.10;99.90;;;;;;5050181;28;20804;-67
2021/03/01 10:39:14;;;;;;;15.07;10.20;;;7.10;99.90;;;;;;5050663;28;20464;-66
2021/03/01 10:41:43;;;;;;;15.40;10.57;;;7.30;99.90;;;;;;5050607;28;20902;-66
2021/03/01 10:44:10;;;;;;;15.13;10.20;;;7.40;99.90;;;;;;5050822;28;20484;-66
2021/03/01 10:46:43;;;;;;;13.60;10.60;;;7.60;99.90;;;;;;5050139;28;20442;-66
2021/03/01 10:49:23;;;;;;;14.70;10.10;;;7.70;99.90;;;;;;5048826;28;20465;-67
2021/03/01 10:51:52;;;;;;;13.30;8.43;;;7.70;99.90;;;;;;5050575;28;20458;-66
2021/03/01 10:54:19;;;;;;;15.57;10.13;;;7.70;99.90;;;;;;5050394;28;20429;-67
2021/03/01 10:56:45;;;;;;;14.97;10.27;;;7.80;99.90;;;;;;5050452;28;20424;-66
2021/03/01 10:59:12;;;;;;;14.87;10.17;;;7.80;99.90;;;;;;5050291;28;20437;-67
2021/03/01 11:01:40;;;;;;;11.67;9.10;;;8.00;99.90;;;;;;5050254;28;20443;-66
2021/03/01 11:04:07;;;;;;;13.73;10.00;;;8.10;99.90;;;;;;5050302;28;20483;-66
2021/03/01 11:06:35;;;;;;;12.50;9.17;;;8.20;99.90;;;;;;5050246;28;20428;-66
2021/03/01 11:09:03;;;;;;;15.23;9.07;;;8.40;99.90;;;;;;5050176;28;20462;-67
2021/03/01 11:11:29;;;;;;;11.90;8.77;;;8.50;99.90;;;;;;5050085;28;20432;-67
2021/03/01 11:13:56;;;;;;;9.83;7.53;;;8.60;99.90;;;;;;5051361;28;20447;-67
2021/03/01 11:16:23;;;;;;;12.07;9.00;;;8.70;99.90;;;;;;5054160;28;20879;-67
2021/03/01 11:18:50;;;;;;;9.70;7.27;;;8.70;99.90;;;;;;5053789;28;20465;-67
2021/03/01 11:21:16;;;;;;;12.20;7.90;;;8.80;99.90;;;;;;5053622;28;20712;-66
2021/03/01 11:23:44;;;;;;;13.97;8.60;;;9.00;99.90;;;;;;5053935;28;20489;-66
2021/03/01 11:26:11;;;;;;;12.43;8.40;;;9.10;99.90;;;;;;5054074;28;20858;-66
2021/03/01 11:28:37;;;;;;;13.13;8.77;;;9.20;99.90;;;;;;5053814;28;20443;-67
2021/03/01 11:31:04;;;;;;;11.37;7.60;;;9.30;99.90;;;;;;5054239;28;20431;-67
2021/03/01 11:33:31;;;;;;;11.90;8.37;;;9.40;99.90;;;;;;5053634;28;20431;-66
2021/03/01 11:35:58;;;;;;;11.30;7.93;;;9.70;99.90;;;;;;5053770;28;20429;-67
2021/03/01 11:38:29;;;;;;;10.83;7.70;;;9.80;99.90;;;;;;5053701;28;20449;-67
2021/03/01 11:40:57;;;;;;;14.90;7.23;;;9.90;99.90;;;;;;5053240;28;20974;-66
2021/03/01 11:43:25;;;;;;;11.60;7.40;;;9.90;99.90;;;;;;5053582;28;20536;-67
2021/03/01 11:45:52;;;;;;;12.80;9.27;;;10.10;99.90;;;;;;5053921;28;20438;-66
2021/03/01 11:48:18;;;;;;;12.20;8.37;;;10.20;99.90;;;;;;5053313;28;20458;-67
2021/03/01 11:50:46;;;;;;;11.00;8.00;;;10.30;99.90;;;;;;5053186;28;20423;-67
2021/03/01 11:53:15;;;;;;;11.47;8.40;;;10.40;99.90;;;;;;5053154;28;20427;-66
2021/03/01 11:55:43;;;;;;;10.97;7.70;;;10.50;99.90;;;;;;5053429;28;20844;-67
2021/03/01 11:58:11;;;;;;;10.93;7.40;;;10.60;99.90;;;;;;5053402;28;20500;-66
2021/03/01 12:00:40;;;;;;;12.50;8.37;;;10.80;99.90;;;;;;5053374;28;20438;-66
2021/03/01 12:03:08;;;;;;;11.40;7.80;;;10.80;99.90;;;;;;5053204;28;20875;-66
2021/03/01 12:05:35;;;;;;;14.73;8.03;;;10.90;99.90;;;;;;5053097;28;20762;-66
2021/03/01 12:08:03;;;;;;;12.13;8.30;;;11.10;99.90;;;;;;5052958;28;20874;-65
2021/03/01 12:10:29;;;;;;;11.57;7.63;;;11.20;99.90;;;;;;5053025;28;20438;-66
2021/03/01 12:12:56;;;;;;;11.40;8.13;;;11.20;99.90;;;;;;5052881;28;20450;-66
2021/03/01 12:15:24;;;;;;;13.33;8.90;;;11.30;99.90;;;;;;5052996;28;20423;-66
2021/03/01 12:17:50;;;;;;;13.10;8.73;;;11.50;99.90;;;;;;5052895;28;20454;-66
2021/03/01 12:20:17;;;;;;;15.83;8.23;;;11.50;99.90;;;;;;5052728;28;20492;-66
2021/03/01 12:22:44;;;;;;;11.60;9.40;;;11.60;99.90;;;;;;5051785;28;20439;-66
2021/03/01 12:25:11;;;;;;;13.47;9.63;;;11.70;99.90;;;;;;5052640;28;20521;-66
2021/03/01 12:27:38;;;;;;;11.80;7.80;;;11.80;99.90;;;;;;5052681;28;20446;-66
2021/03/01 12:30:07;;;;;;;10.40;7.40;;;12.10;99.90;;;;;;5052113;28;20832;-65
2021/03/01 12:32:34;;;;;;;11.30;8.57;;;12.30;99.90;;;;;;5052615;28;20431;-66
2021/03/01 12:35:02;;;;;;;13.40;7.73;;;12.30;99.90;;;;;;5051737;28;20443;-65
2021/03/01 12:37:29;;;;;;;11.80;7.80;;;12.30;99.90;;;;;;5052156;28;20475;-66
2021/03/01 12:39:57;;;;;;;9.90;7.63;;;12.40;99.90;;;;;;5052632;28;20446;-67
2021/03/01 12:42:24;;;;;;;13.03;7.40;;;12.60;99.90;;;;;;5052320;28;20450;-66
2021/03/01 12:44:51;;;;;;;10.40;7.43;;;12.70;99.90;;;;;;5052447;28;20860;-65
2021/03/01 12:47:18;;;;;;;8.10;7.27;;;12.90;99.90;;;;;;5052164;28;20510;-67
2021/03/01 12:49:46;;;;;;;11.30;8.20;;;13.20;99.90;;;;;;5051993;28;20438;-66
2021/03/01 12:52:12;;;;;;;10.03;8.47;;;13.40;99.90;;;;;;5052088;28;20435;-66
2021/03/01 12:54:39;;;;;;;8.60;7.20;;;13.50;99.90;;;;;;5051393;28;20469;-66